sensor_id;sensor_type;location;lat;lon;timestamp;P1;durP1;ratioP1;P2;durP2;ratioP2
16804;SDS011;8520;50.102;20.010;2023-04-24T00:01:51;11.77;;;10.57;;
16804;SDS011;8520;50.102;20.010;2023-04-24T00:04:19;12.27;;;11.23;;
16804;SDS011;8520;50.102;20.010;2023-04-24T00:06:47;10.80;;;9.90;;
16804;SDS011;8520;50.102;20.010;2023-04-24T00:09:20;11.18;;;10.02;;
16804;SDS011;8520;50.102;20.010;2023-04-24T00:11:48;10.82;;;9.82;;
16804;SDS011;8520;50.102;20.010;2023-04-24T00:14:18;11.77;;;10.38;;
16804;SDS011;8520;50.102;20.010;2023-04-24T00:16:46;11.77;;;10.65;;
16804;SDS011;8520;50.102;20.010;2023-04-24T00:19:14;10.68;;;9.68;;
16804;SDS011;8520;50.102;20.010;2023-04-24T00:21:43;11.20;;;10.07;;
16804;SDS011;8520;50.102;20.010;2023-04-24T00:24:11;11.48;;;10.35;;
16804;SDS011;8520;50.102;20.010;2023-04-24T00:26:39;10.82;;;9.85;;
16804;SDS011;8520;50.102;20.010;2023-04-24T00:29:07;10.95;;;9.95;;
16804;SDS011;8520;50.102;20.010;2023-04-24T00:31:36;10.07;;;9.27;;
16804;SDS011;8520;50.102;20.010;2023-04-24T00:34:05;11.23;;;10.23;;
16804;SDS011;8520;50.102;20.010;2023-04-24T00:36:34;9.25;;;8.50;;
16804;SDS011;8520;50.102;20.010;2023-04-24T00:39:02;9.50;;;8.60;;
16804;SDS011;8520;50.102;20.010;2023-04-24T00:41:30;12.32;;;11.13;;
16804;SDS011;8520;50.102;20.010;2023-04-24T00:43:58;10.30;;;9.45;;
16804;SDS011;8520;50.102;20.010;2023-04-24T00:46:26;9.00;;;8.32;;
16804;SDS011;8520;50.102;20.010;2023-04-24T00:48:56;9.13;;;8.32;;
16804;SDS011;8520;50.102;20.010;2023-04-24T00:51:24;9.45;;;8.70;;
16804;SDS011;8520;50.102;20.010;2023-04-24T00:53:53;10.63;;;8.48;;
16804;SDS011;8520;50.102;20.010;2023-04-24T00:56:22;10.32;;;9.32;;
16804;SDS011;8520;50.102;20.010;2023-04-24T00:58:50;9.23;;;8.53;;
16804;SDS011;8520;50.102;20.010;2023-04-24T01:01:19;10.18;;;9.38;;
16804;SDS011;8520;50.102;20.010;2023-04-24T01:03:50;9.82;;;9.13;;
16804;SDS011;8520;50.102;20.010;2023-04-24T01:06:20;10.43;;;9.38;;
16804;SDS011;8520;50.102;20.010;2023-04-24T01:08:49;9.77;;;9.02;;
16804;SDS011;8520;50.102;20.010;2023-04-24T01:11:18;10.48;;;9.68;;
16804;SDS011;8520;50.102;20.010;2023-04-24T01:13:46;8.88;;;8.13;;
16804;SDS011;8520;50.102;20.010;2023-04-24T01:16:15;9.93;;;9.10;;
16804;SDS011;8520;50.102;20.010;2023-04-24T01:18:44;9.93;;;9.02;;
16804;SDS011;8520;50.102;20.010;2023-04-24T01:21:13;10.13;;;9.18;;
16804;SDS011;8520;50.102;20.010;2023-04-24T01:23:44;9.63;;;8.85;;
16804;SDS011;8520;50.102;20.010;2023-04-24T01:26:15;11.45;;;10.32;;
16804;SDS011;8520;50.102;20.010;2023-04-24T01:28:46;10.70;;;9.83;;
16804;SDS011;8520;50.102;20.010;2023-04-24T01:31:15;10.73;;;9.93;;
16804;SDS011;8520;50.102;20.010;2023-04-24T01:33:44;11.00;;;10.15;;
16804;SDS011;8520;50.102;20.010;2023-04-24T01:36:12;11.20;;;10.20;;
16804;SDS011;8520;50.102;20.010;2023-04-24T01:38:41;11.48;;;10.48;;
16804;SDS011;8520;50.102;20.010;2023-04-24T01:41:10;13.53;;;10.73;;
16804;SDS011;8520;50.102;20.010;2023-04-24T01:43:39;9.88;;;9.18;;
16804;SDS011;8520;50.102;20.010;2023-04-24T01:46:07;10.73;;;9.90;;
16804;SDS011;8520;50.102;20.010;2023-04-24T01:48:35;10.02;;;9.13;;
16804;SDS011;8520;50.102;20.010;2023-04-24T01:51:03;9.97;;;9.07;;
16804;SDS011;8520;50.102;20.010;2023-04-24T01:53:31;10.93;;;10.03;;
16804;SDS011;8520;50.102;20.010;2023-04-24T01:56:01;10.90;;;9.83;;
16804;SDS011;8520;50.102;20.010;2023-04-24T01:58:31;10.57;;;9.60;;
16804;SDS011;8520;50.102;20.010;2023-04-24T02:01:01;11.33;;;10.30;;
16804;SDS011;8520;50.102;20.010;2023-04-24T02:03:29;9.97;;;9.27;;
16804;SDS011;8520;50.102;20.010;2023-04-24T02:05:57;10.63;;;9.80;;
16804;SDS011;8520;50.102;20.010;2023-04-24T02:08:26;9.83;;;8.93;;
16804;SDS011;8520;50.102;20.010;2023-04-24T02:10:54;9.17;;;8.57;;
16804;SDS011;8520;50.102;20.010;2023-04-24T02:13:22;9.47;;;8.60;;
16804;SDS011;8520;50.102;20.010;2023-04-24T02:15:51;9.57;;;8.77;;
16804;SDS011;8520;50.102;20.010;2023-04-24T02:18:19;9.57;;;8.77;;
16804;SDS011;8520;50.102;20.010;2023-04-24T02:20:49;9.13;;;8.53;;
16804;SDS011;8520;50.102;20.010;2023-04-24T02:23:19;9.73;;;8.83;;
16804;SDS011;8520;50.102;20.010;2023-04-24T02:25:47;9.23;;;8.50;;
16804;SDS011;8520;50.102;20.010;2023-04-24T02:28:16;8.97;;;8.27;;
16804;SDS011;8520;50.102;20.010;2023-04-24T02:30:44;8.80;;;8.10;;
16804;SDS011;8520;50.102;20.010;2023-04-24T02:33:14;9.60;;;8.83;;
16804;SDS011;8520;50.102;20.010;2023-04-24T02:35:42;11.47;;;8.90;;
16804;SDS011;8520;50.102;20.010;2023-04-24T02:38:10;10.33;;;8.33;;
16804;SDS011;8520;50.102;20.010;2023-04-24T02:40:38;9.27;;;8.40;;
16804;SDS011;8520;50.102;20.010;2023-04-24T02:43:06;10.20;;;9.20;;
16804;SDS011;8520;50.102;20.010;2023-04-24T02:45:34;9.47;;;8.67;;
16804;SDS011;8520;50.102;20.010;2023-04-24T02:48:04;12.03;;;10.47;;
16804;SDS011;8520;50.102;20.010;2023-04-24T02:50:34;11.50;;;10.60;;
16804;SDS011;8520;50.102;20.010;2023-04-24T02:53:02;11.00;;;10.20;;
16804;SDS011;8520;50.102;20.010;2023-04-24T02:55:30;12.07;;;11.27;;
16804;SDS011;8520;50.102;20.010;2023-04-24T02:57:58;10.67;;;9.83;;
16804;SDS011;8520;50.102;20.010;2023-04-24T03:00:28;9.13;;;8.43;;
16804;SDS011;8520;50.102;20.010;2023-04-24T03:02:56;9.27;;;8.67;;
16804;SDS011;8520;50.102;20.010;2023-04-24T03:05:24;10.30;;;9.23;;
16804;SDS011;8520;50.102;20.010;2023-04-24T03:07:55;9.20;;;8.50;;
16804;SDS011;8520;50.102;20.010;2023-04-24T03:10:23;9.53;;;8.60;;
16804;SDS011;8520;50.102;20.010;2023-04-24T03:12:51;9.37;;;8.67;;
16804;SDS011;8520;50.102;20.010;2023-04-24T03:15:19;11.53;;;9.40;;
16804;SDS011;8520;50.102;20.010;2023-04-24T03:17:47;10.50;;;9.60;;
16804;SDS011;8520;50.102;20.010;2023-04-24T03:20:15;9.83;;;9.00;;
16804;SDS011;8520;50.102;20.010;2023-04-24T03:22:43;10.23;;;9.27;;
16804;SDS011;8520;50.102;20.010;2023-04-24T03:25:13;9.13;;;8.37;;
16804;SDS011;8520;50.102;20.010;2023-04-24T03:27:41;10.63;;;9.43;;
16804;SDS011;8520;50.102;20.010;2023-04-24T03:30:25;11.47;;;9.43;;
16804;SDS011;8520;50.102;20.010;2023-04-24T03:32:57;11.20;;;10.13;;
16804;SDS011;8520;50.102;20.010;2023-04-24T03:35:28;10.33;;;9.50;;
16804;SDS011;8520;50.102;20.010;2023-04-24T03:38:00;10.13;;;9.33;;
16804;SDS011;8520;50.102;20.010;2023-04-24T03:40:57;10.87;;;10.00;;
16804;SDS011;8520;50.102;20.010;2023-04-24T03:43:43;11.47;;;10.47;;
16804;SDS011;8520;50.102;20.010;2023-04-24T03:46:11;10.90;;;9.90;;
16804;SDS011;8520;50.102;20.010;2023-04-24T03:48:47;10.40;;;9.40;;
16804;SDS011;8520;50.102;20.010;2023-04-24T03:51:17;10.33;;;9.43;;
16804;SDS011;8520;50.102;20.010;2023-04-24T03:53:48;10.57;;;9.53;;
16804;SDS011;8520;50.102;20.010;2023-04-24T03:56:21;10.00;;;9.10;;
16804;SDS011;8520;50.102;20.010;2023-04-24T03:58:49;11.33;;;10.30;;
16804;SDS011;8520;50.102;20.010;2023-04-24T04:01:17;9.73;;;8.70;;
16804;SDS011;8520;50.102;20.010;2023-04-24T04:04:00;11.00;;;9.97;;
16804;SDS011;8520;50.102;20.010;2023-04-24T04:06:29;10.93;;;9.77;;
16804;SDS011;8520;50.102;20.010;2023-04-24T04:08:59;10.33;;;9.53;;
16804;SDS011;8520;50.102;20.010;2023-04-24T04:11:29;10.30;;;9.17;;
16804;SDS011;8520;50.102;20.010;2023-04-24T04:13:58;10.23;;;9.33;;
16804;SDS011;8520;50.102;20.010;2023-04-24T04:16:27;11.27;;;10.20;;
16804;SDS011;8520;50.102;20.010;2023-04-24T04:19:00;10.50;;;9.50;;
16804;SDS011;8520;50.102;20.010;2023-04-24T04:21:29;13.17;;;9.57;;
16804;SDS011;8520;50.102;20.010;2023-04-24T04:24:09;11.80;;;9.20;;
16804;SDS011;8520;50.102;20.010;2023-04-24T04:26:43;11.13;;;9.20;;
16804;SDS011;8520;50.102;20.010;2023-04-24T04:29:20;11.00;;;9.53;;
16804;SDS011;8520;50.102;20.010;2023-04-24T04:31:50;11.07;;;10.03;;
16804;SDS011;8520;50.102;20.010;2023-04-24T04:34:20;10.43;;;9.07;;
16804;SDS011;8520;50.102;20.010;2023-04-24T04:36:50;11.67;;;10.53;;
16804;SDS011;8520;50.102;20.010;2023-04-24T04:39:34;10.57;;;9.60;;
16804;SDS011;8520;50.102;20.010;2023-04-24T04:42:07;12.83;;;10.30;;
16804;SDS011;8520;50.102;20.010;2023-04-24T04:44:39;13.10;;;10.40;;
16804;SDS011;8520;50.102;20.010;2023-04-24T04:47:11;11.10;;;9.97;;
16804;SDS011;8520;50.102;20.010;2023-04-24T04:49:41;10.47;;;9.47;;
16804;SDS011;8520;50.102;20.010;2023-04-24T04:52:20;10.93;;;9.80;;
16804;SDS011;8520;50.102;20.010;2023-04-24T04:54:59;11.17;;;9.67;;
16804;SDS011;8520;50.102;20.010;2023-04-24T04:57:49;13.07;;;9.43;;
16804;SDS011;8520;50.102;20.010;2023-04-24T05:00:18;11.33;;;8.53;;
16804;SDS011;8520;50.102;20.010;2023-04-24T05:02:50;10.27;;;9.30;;
16804;SDS011;8520;50.102;20.010;2023-04-24T05:05:19;15.27;;;9.13;;
16804;SDS011;8520;50.102;20.010;2023-04-24T05:07:48;12.90;;;9.17;;
16804;SDS011;8520;50.102;20.010;2023-04-24T05:10:17;10.10;;;9.07;;
16804;SDS011;8520;50.102;20.010;2023-04-24T05:12:45;10.73;;;9.60;;
16804;SDS011;8520;50.102;20.010;2023-04-24T05:15:15;13.07;;;11.83;;
16804;SDS011;8520;50.102;20.010;2023-04-24T05:17:43;13.27;;;9.93;;
16804;SDS011;8520;50.102;20.010;2023-04-24T05:20:12;11.30;;;10.13;;
16804;SDS011;8520;50.102;20.010;2023-04-24T05:22:42;10.87;;;9.97;;
16804;SDS011;8520;50.102;20.010;2023-04-24T05:25:10;10.97;;;9.93;;
16804;SDS011;8520;50.102;20.010;2023-04-24T05:27:44;14.07;;;10.87;;
16804;SDS011;8520;50.102;20.010;2023-04-24T05:30:16;11.87;;;10.33;;
16804;SDS011;8520;50.102;20.010;2023-04-24T05:32:44;14.93;;;12.23;;
16804;SDS011;8520;50.102;20.010;2023-04-24T05:35:12;15.33;;;13.30;;
16804;SDS011;8520;50.102;20.010;2023-04-24T05:37:41;17.23;;;13.53;;
16804;SDS011;8520;50.102;20.010;2023-04-24T05:40:10;19.97;;;13.70;;
16804;SDS011;8520;50.102;20.010;2023-04-24T05:42:39;19.17;;;12.77;;
16804;SDS011;8520;50.102;20.010;2023-04-24T05:45:07;18.80;;;12.07;;
16804;SDS011;8520;50.102;20.010;2023-04-24T05:47:39;20.70;;;11.80;;
16804;SDS011;8520;50.102;20.010;2023-04-24T05:50:08;23.17;;;11.23;;
16804;SDS011;8520;50.102;20.010;2023-04-24T05:52:36;18.03;;;11.23;;
16804;SDS011;8520;50.102;20.010;2023-04-24T05:55:16;16.40;;;10.00;;
16804;SDS011;8520;50.102;20.010;2023-04-24T05:57:46;12.83;;;9.80;;
16804;SDS011;8520;50.102;20.010;2023-04-24T06:00:14;11.50;;;10.07;;
16804;SDS011;8520;50.102;20.010;2023-04-24T06:02:51;19.30;;;9.70;;
16804;SDS011;8520;50.102;20.010;2023-04-24T06:05:21;15.73;;;10.17;;
16804;SDS011;8520;50.102;20.010;2023-04-24T06:07:52;14.57;;;9.30;;
16804;SDS011;8520;50.102;20.010;2023-04-24T06:10:22;17.67;;;10.02;;
16804;SDS011;8520;50.102;20.010;2023-04-24T06:12:51;14.83;;;10.00;;
16804;SDS011;8520;50.102;20.010;2023-04-24T06:15:23;23.03;;;11.00;;
16804;SDS011;8520;50.102;20.010;2023-04-24T06:18:07;17.50;;;10.57;;
16804;SDS011;8520;50.102;20.010;2023-04-24T06:20:37;21.35;;;9.50;;
16804;SDS011;8520;50.102;20.010;2023-04-24T06:23:08;10.05;;;9.18;;
16804;SDS011;8520;50.102;20.010;2023-04-24T06:25:36;14.57;;;8.63;;
16804;SDS011;8520;50.102;20.010;2023-04-24T06:28:05;12.55;;;9.32;;
16804;SDS011;8520;50.102;20.010;2023-04-24T06:30:34;17.70;;;9.55;;
16804;SDS011;8520;50.102;20.010;2023-04-24T06:33:02;13.93;;;9.75;;
16804;SDS011;8520;50.102;20.010;2023-04-24T06:35:46;21.27;;;9.88;;
16804;SDS011;8520;50.102;20.010;2023-04-24T06:38:15;21.27;;;12.38;;
16804;SDS011;8520;50.102;20.010;2023-04-24T06:40:43;17.60;;;12.23;;
16804;SDS011;8520;50.102;20.010;2023-04-24T06:43:11;20.15;;;11.35;;
16804;SDS011;8520;50.102;20.010;2023-04-24T06:45:41;19.67;;;10.57;;
16804;SDS011;8520;50.102;20.010;2023-04-24T06:48:10;17.73;;;10.52;;
16804;SDS011;8520;50.102;20.010;2023-04-24T06:50:38;22.63;;;9.70;;
16804;SDS011;8520;50.102;20.010;2023-04-24T06:53:08;21.33;;;10.50;;
16804;SDS011;8520;50.102;20.010;2023-04-24T06:55:37;17.38;;;11.30;;
16804;SDS011;8520;50.102;20.010;2023-04-24T06:58:05;19.08;;;10.25;;
16804;SDS011;8520;50.102;20.010;2023-04-24T07:00:34;16.42;;;9.70;;
16804;SDS011;8520;50.102;20.010;2023-04-24T07:03:02;12.43;;;8.25;;
16804;SDS011;8520;50.102;20.010;2023-04-24T07:05:32;9.60;;;8.60;;
16804;SDS011;8520;50.102;20.010;2023-04-24T07:08:01;8.93;;;6.35;;
16804;SDS011;8520;50.102;20.010;2023-04-24T07:10:32;12.73;;;7.45;;
16804;SDS011;8520;50.102;20.010;2023-04-24T07:13:02;7.85;;;6.22;;
16804;SDS011;8520;50.102;20.010;2023-04-24T07:15:30;11.60;;;6.60;;
16804;SDS011;8520;50.102;20.010;2023-04-24T07:17:58;6.72;;;6.22;;
16804;SDS011;8520;50.102;20.010;2023-04-24T07:20:30;8.18;;;5.85;;
16804;SDS011;8520;50.102;20.010;2023-04-24T07:22:59;7.07;;;6.10;;
16804;SDS011;8520;50.102;20.010;2023-04-24T07:25:27;7.97;;;6.13;;
16804;SDS011;8520;50.102;20.010;2023-04-24T07:27:57;10.68;;;6.00;;
16804;SDS011;8520;50.102;20.010;2023-04-24T07:30:25;6.43;;;6.03;;
16804;SDS011;8520;50.102;20.010;2023-04-24T07:32:55;7.03;;;6.38;;
16804;SDS011;8520;50.102;20.010;2023-04-24T07:35:23;6.75;;;5.97;;
16804;SDS011;8520;50.102;20.010;2023-04-24T07:37:52;6.32;;;5.82;;
16804;SDS011;8520;50.102;20.010;2023-04-24T07:40:20;7.68;;;5.90;;
16804;SDS011;8520;50.102;20.010;2023-04-24T07:42:49;6.57;;;6.18;;
16804;SDS011;8520;50.102;20.010;2023-04-24T07:45:18;6.70;;;6.07;;
16804;SDS011;8520;50.102;20.010;2023-04-24T07:47:46;5.63;;;5.22;;
16804;SDS011;8520;50.102;20.010;2023-04-24T07:50:15;6.82;;;6.15;;
16804;SDS011;8520;50.102;20.010;2023-04-24T07:52:43;6.07;;;5.63;;
16804;SDS011;8520;50.102;20.010;2023-04-24T07:55:11;6.20;;;5.80;;
16804;SDS011;8520;50.102;20.010;2023-04-24T07:57:39;6.72;;;6.10;;
16804;SDS011;8520;50.102;20.010;2023-04-24T08:00:07;6.55;;;5.95;;
16804;SDS011;8520;50.102;20.010;2023-04-24T08:02:41;6.57;;;6.18;;
16804;SDS011;8520;50.102;20.010;2023-04-24T08:05:09;6.32;;;5.75;;
16804;SDS011;8520;50.102;20.010;2023-04-24T08:07:37;6.28;;;5.68;;
16804;SDS011;8520;50.102;20.010;2023-04-24T08:10:06;7.75;;;6.65;;
16804;SDS011;8520;50.102;20.010;2023-04-24T08:12:35;8.55;;;5.70;;
16804;SDS011;8520;50.102;20.010;2023-04-24T08:15:04;6.82;;;6.32;;
16804;SDS011;8520;50.102;20.010;2023-04-24T08:17:33;6.32;;;5.70;;
16804;SDS011;8520;50.102;20.010;2023-04-24T08:20:03;7.10;;;6.40;;
16804;SDS011;8520;50.102;20.010;2023-04-24T08:22:32;5.93;;;5.43;;
16804;SDS011;8520;50.102;20.010;2023-04-24T08:25:00;6.00;;;5.60;;
16804;SDS011;8520;50.102;20.010;2023-04-24T08:27:28;6.53;;;6.03;;
16804;SDS011;8520;50.102;20.010;2023-04-24T08:29:56;6.60;;;6.15;;
16804;SDS011;8520;50.102;20.010;2023-04-24T08:32:24;5.80;;;5.40;;
16804;SDS011;8520;50.102;20.010;2023-04-24T08:34:54;6.20;;;5.70;;
16804;SDS011;8520;50.102;20.010;2023-04-24T08:37:25;6.15;;;5.65;;
16804;SDS011;8520;50.102;20.010;2023-04-24T08:39:53;6.03;;;5.40;;
16804;SDS011;8520;50.102;20.010;2023-04-24T08:42:22;7.40;;;6.90;;
16804;SDS011;8520;50.102;20.010;2023-04-24T08:44:50;5.88;;;5.38;;
16804;SDS011;8520;50.102;20.010;2023-04-24T08:47:18;6.70;;;6.03;;
16804;SDS011;8520;50.102;20.010;2023-04-24T08:49:48;7.47;;;5.95;;
16804;SDS011;8520;50.102;20.010;2023-04-24T08:52:18;5.30;;;5.00;;
16804;SDS011;8520;50.102;20.010;2023-04-24T08:54:48;6.03;;;5.53;;
16804;SDS011;8520;50.102;20.010;2023-04-24T08:57:17;6.15;;;5.75;;
16804;SDS011;8520;50.102;20.010;2023-04-24T08:59:46;6.55;;;6.15;;
16804;SDS011;8520;50.102;20.010;2023-04-24T09:02:14;6.72;;;5.43;;
16804;SDS011;8520;50.102;20.010;2023-04-24T09:04:44;5.30;;;5.00;;
16804;SDS011;8520;50.102;20.010;2023-04-24T09:07:14;5.93;;;5.53;;
16804;SDS011;8520;50.102;20.010;2023-04-24T09:09:44;7.80;;;5.28;;
16804;SDS011;8520;50.102;20.010;2023-04-24T09:12:14;6.07;;;5.57;;
16804;SDS011;8520;50.102;20.010;2023-04-24T09:14:42;4.93;;;4.63;;
16804;SDS011;8520;50.102;20.010;2023-04-24T09:17:11;6.03;;;5.63;;
16804;SDS011;8520;50.102;20.010;2023-04-24T09:19:40;5.35;;;4.95;;
16804;SDS011;8520;50.102;20.010;2023-04-24T09:22:09;9.30;;;8.55;;
16804;SDS011;8520;50.102;20.010;2023-04-24T09:24:37;6.30;;;5.35;;
16804;SDS011;8520;50.102;20.010;2023-04-24T09:27:06;5.60;;;5.30;;
16804;SDS011;8520;50.102;20.010;2023-04-24T09:29:38;6.60;;;6.10;;
16804;SDS011;8520;50.102;20.010;2023-04-24T09:32:17;6.00;;;5.50;;
16804;SDS011;8520;50.102;20.010;2023-04-24T09:34:48;5.43;;;5.03;;
16804;SDS011;8520;50.102;20.010;2023-04-24T09:37:27;7.35;;;6.75;;
16804;SDS011;8520;50.102;20.010;2023-04-24T09:40:09;7.05;;;6.55;;
16804;SDS011;8520;50.102;20.010;2023-04-24T09:42:39;6.13;;;5.63;;
16804;SDS011;8520;50.102;20.010;2023-04-24T09:45:12;5.88;;;5.30;;
16804;SDS011;8520;50.102;20.010;2023-04-24T09:47:41;6.53;;;6.03;;
16804;SDS011;8520;50.102;20.010;2023-04-24T09:50:11;6.20;;;5.70;;
16804;SDS011;8520;50.102;20.010;2023-04-24T09:52:43;6.10;;;5.60;;
16804;SDS011;8520;50.102;20.010;2023-04-24T09:55:16;6.85;;;6.40;;
16804;SDS011;8520;50.102;20.010;2023-04-24T09:57:50;6.30;;;5.97;;
16804;SDS011;8520;50.102;20.010;2023-04-24T10:00:22;7.45;;;6.75;;
16804;SDS011;8520;50.102;20.010;2023-04-24T10:02:55;7.30;;;6.63;;
16804;SDS011;8520;50.102;20.010;2023-04-24T10:05:25;6.00;;;5.38;;
16804;SDS011;8520;50.102;20.010;2023-04-24T10:08:00;6.20;;;5.70;;
16804;SDS011;8520;50.102;20.010;2023-04-24T10:10:29;5.78;;;5.18;;
16804;SDS011;8520;50.102;20.010;2023-04-24T10:12:58;6.22;;;5.50;;
16804;SDS011;8520;50.102;20.010;2023-04-24T10:15:28;6.15;;;5.75;;
16804;SDS011;8520;50.102;20.010;2023-04-24T10:17:57;6.10;;;5.60;;
16804;SDS011;8520;50.102;20.010;2023-04-24T10:20:27;5.93;;;5.43;;
16804;SDS011;8520;50.102;20.010;2023-04-24T10:22:57;5.78;;;5.30;;
16804;SDS011;8520;50.102;20.010;2023-04-24T10:25:27;5.50;;;5.10;;
16804;SDS011;8520;50.102;20.010;2023-04-24T10:27:57;5.80;;;5.40;;
16804;SDS011;8520;50.102;20.010;2023-04-24T10:30:27;6.22;;;5.72;;
16804;SDS011;8520;50.102;20.010;2023-04-24T10:32:59;5.50;;;5.10;;
16804;SDS011;8520;50.102;20.010;2023-04-24T10:35:27;5.38;;;4.97;;
16804;SDS011;8520;50.102;20.010;2023-04-24T10:37:59;5.43;;;5.00;;
16804;SDS011;8520;50.102;20.010;2023-04-24T10:40:32;5.47;;;5.00;;
16804;SDS011;8520;50.102;20.010;2023-04-24T10:43:01;5.63;;;5.32;;
16804;SDS011;8520;50.102;20.010;2023-04-24T10:45:33;5.45;;;5.05;;
16804;SDS011;8520;50.102;20.010;2023-04-24T10:48:02;5.10;;;4.60;;
16804;SDS011;8520;50.102;20.010;2023-04-24T10:50:41;5.38;;;4.97;;
16804;SDS011;8520;50.102;20.010;2023-04-24T10:53:15;7.38;;;5.70;;
16804;SDS011;8520;50.102;20.010;2023-04-24T10:55:45;5.45;;;5.15;;
16804;SDS011;8520;50.102;20.010;2023-04-24T10:58:14;6.20;;;5.22;;
16804;SDS011;8520;50.102;20.010;2023-04-24T11:00:48;5.68;;;5.20;;
16804;SDS011;8520;50.102;20.010;2023-04-24T11:03:24;5.70;;;5.28;;
16804;SDS011;8520;50.102;20.010;2023-04-24T11:05:58;6.10;;;5.70;;
16804;SDS011;8520;50.102;20.010;2023-04-24T11:08:29;5.90;;;5.50;;
16804;SDS011;8520;50.102;20.010;2023-04-24T11:11:03;5.50;;;5.07;;
16804;SDS011;8520;50.102;20.010;2023-04-24T11:16:31;5.18;;;4.88;;
16804;SDS011;8520;50.102;20.010;2023-04-24T11:19:01;5.80;;;5.22;;
16804;SDS011;8520;50.102;20.010;2023-04-24T11:21:31;5.63;;;5.25;;
16804;SDS011;8520;50.102;20.010;2023-04-24T11:26:51;5.57;;;5.18;;
16804;SDS011;8520;50.102;20.010;2023-04-24T11:29:20;6.40;;;5.90;;
16804;SDS011;8520;50.102;20.010;2023-04-24T11:31:52;7.63;;;6.32;;
16804;SDS011;8520;50.102;20.010;2023-04-24T11:34:20;5.90;;;5.50;;
16804;SDS011;8520;50.102;20.010;2023-04-24T11:36:49;5.90;;;5.40;;
16804;SDS011;8520;50.102;20.010;2023-04-24T11:39:18;6.55;;;6.10;;
16804;SDS011;8520;50.102;20.010;2023-04-24T11:41:46;5.75;;;5.35;;
16804;SDS011;8520;50.102;20.010;2023-04-24T11:44:14;5.95;;;5.50;;
16804;SDS011;8520;50.102;20.010;2023-04-24T11:46:48;5.80;;;5.40;;
16804;SDS011;8520;50.102;20.010;2023-04-24T11:49:17;6.30;;;5.90;;
16804;SDS011;8520;50.102;20.010;2023-04-24T11:51:45;6.47;;;6.03;;
16804;SDS011;8520;50.102;20.010;2023-04-24T11:54:19;6.38;;;5.60;;
16804;SDS011;8520;50.102;20.010;2023-04-24T11:56:47;5.70;;;5.25;;
16804;SDS011;8520;50.102;20.010;2023-04-24T11:59:17;6.82;;;5.20;;
16804;SDS011;8520;50.102;20.010;2023-04-24T12:01:45;6.22;;;5.72;;
16804;SDS011;8520;50.102;20.010;2023-04-24T12:04:13;6.85;;;6.43;;
16804;SDS011;8520;50.102;20.010;2023-04-24T12:09:39;5.28;;;4.90;;
16804;SDS011;8520;50.102;20.010;2023-04-24T12:12:09;6.10;;;5.70;;
16804;SDS011;8520;50.102;20.010;2023-04-24T12:14:47;5.82;;;5.43;;
16804;SDS011;8520;50.102;20.010;2023-04-24T12:17:16;6.13;;;5.63;;
16804;SDS011;8520;50.102;20.010;2023-04-24T12:19:45;5.07;;;4.72;;
16804;SDS011;8520;50.102;20.010;2023-04-24T12:22:15;5.95;;;5.47;;
16804;SDS011;8520;50.102;20.010;2023-04-24T12:24:59;7.10;;;5.10;;
16804;SDS011;8520;50.102;20.010;2023-04-24T12:27:29;5.85;;;5.45;;
16804;SDS011;8520;50.102;20.010;2023-04-24T12:30:00;5.53;;;5.13;;
16804;SDS011;8520;50.102;20.010;2023-04-24T12:32:29;5.35;;;5.05;;
16804;SDS011;8520;50.102;20.010;2023-04-24T12:34:57;5.63;;;5.32;;
16804;SDS011;8520;50.102;20.010;2023-04-24T12:37:32;6.40;;;6.00;;
16804;SDS011;8520;50.102;20.010;2023-04-24T12:40:03;5.60;;;5.13;;
16804;SDS011;8520;50.102;20.010;2023-04-24T12:42:34;5.55;;;5.25;;
16804;SDS011;8520;50.102;20.010;2023-04-24T12:45:03;5.85;;;5.55;;
16804;SDS011;8520;50.102;20.010;2023-04-24T12:47:32;5.53;;;5.03;;
16804;SDS011;8520;50.102;20.010;2023-04-24T12:50:01;6.10;;;5.78;;
16804;SDS011;8520;50.102;20.010;2023-04-24T12:52:31;5.57;;;5.18;;
16804;SDS011;8520;50.102;20.010;2023-04-24T12:54:59;9.45;;;6.00;;
16804;SDS011;8520;50.102;20.010;2023-04-24T12:57:28;8.43;;;5.45;;
16804;SDS011;8520;50.102;20.010;2023-04-24T12:59:58;6.78;;;6.18;;
16804;SDS011;8520;50.102;20.010;2023-04-24T13:02:27;6.85;;;6.15;;
16804;SDS011;8520;50.102;20.010;2023-04-24T13:04:58;7.43;;;6.78;;
16804;SDS011;8520;50.102;20.010;2023-04-24T13:07:26;7.10;;;6.38;;
16804;SDS011;8520;50.102;20.010;2023-04-24T13:09:56;7.35;;;6.63;;
16804;SDS011;8520;50.102;20.010;2023-04-24T13:12:25;6.68;;;6.10;;
16804;SDS011;8520;50.102;20.010;2023-04-24T13:14:53;7.30;;;6.80;;
16804;SDS011;8520;50.102;20.010;2023-04-24T13:17:22;7.03;;;6.43;;
16804;SDS011;8520;50.102;20.010;2023-04-24T13:19:50;7.00;;;6.40;;
16804;SDS011;8520;50.102;20.010;2023-04-24T13:22:22;7.28;;;6.57;;
16804;SDS011;8520;50.102;20.010;2023-04-24T13:24:51;7.80;;;6.57;;
16804;SDS011;8520;50.102;20.010;2023-04-24T13:27:20;6.80;;;6.10;;
16804;SDS011;8520;50.102;20.010;2023-04-24T13:29:49;7.53;;;6.28;;
16804;SDS011;8520;50.102;20.010;2023-04-24T13:32:17;6.65;;;6.13;;
16804;SDS011;8520;50.102;20.010;2023-04-24T13:34:46;7.22;;;6.28;;
16804;SDS011;8520;50.102;20.010;2023-04-24T13:37:14;7.30;;;6.70;;
16804;SDS011;8520;50.102;20.010;2023-04-24T13:39:42;7.03;;;6.45;;
16804;SDS011;8520;50.102;20.010;2023-04-24T13:42:10;6.57;;;6.13;;
16804;SDS011;8520;50.102;20.010;2023-04-24T13:44:40;7.10;;;6.60;;
16804;SDS011;8520;50.102;20.010;2023-04-24T13:47:09;6.72;;;6.05;;
16804;SDS011;8520;50.102;20.010;2023-04-24T13:49:37;8.35;;;6.28;;
16804;SDS011;8520;50.102;20.010;2023-04-24T13:52:05;7.45;;;6.30;;
16804;SDS011;8520;50.102;20.010;2023-04-24T13:54:33;6.00;;;5.57;;
16804;SDS011;8520;50.102;20.010;2023-04-24T13:57:01;5.97;;;5.57;;
16804;SDS011;8520;50.102;20.010;2023-04-24T13:59:30;5.30;;;4.78;;
16804;SDS011;8520;50.102;20.010;2023-04-24T14:02:00;5.20;;;4.80;;
16804;SDS011;8520;50.102;20.010;2023-04-24T14:04:28;5.38;;;5.07;;
16804;SDS011;8520;50.102;20.010;2023-04-24T14:06:56;5.68;;;4.88;;
16804;SDS011;8520;50.102;20.010;2023-04-24T14:09:24;4.95;;;4.65;;
16804;SDS011;8520;50.102;20.010;2023-04-24T14:11:52;5.60;;;5.22;;
16804;SDS011;8520;50.102;20.010;2023-04-24T14:14:20;5.63;;;5.15;;
16804;SDS011;8520;50.102;20.010;2023-04-24T14:16:49;5.43;;;4.80;;
16804;SDS011;8520;50.102;20.010;2023-04-24T14:19:18;5.28;;;4.88;;
16804;SDS011;8520;50.102;20.010;2023-04-24T14:21:46;5.30;;;5.00;;
16804;SDS011;8520;50.102;20.010;2023-04-24T14:24:14;5.63;;;5.00;;
16804;SDS011;8520;50.102;20.010;2023-04-24T14:26:43;5.30;;;4.90;;
16804;SDS011;8520;50.102;20.010;2023-04-24T14:29:11;5.85;;;5.10;;
16804;SDS011;8520;50.102;20.010;2023-04-24T14:31:41;5.70;;;5.20;;
16804;SDS011;8520;50.102;20.010;2023-04-24T14:34:09;6.60;;;4.70;;
16804;SDS011;8520;50.102;20.010;2023-04-24T14:36:40;4.85;;;4.50;;
16804;SDS011;8520;50.102;20.010;2023-04-24T14:39:09;5.47;;;5.07;;
16804;SDS011;8520;50.102;20.010;2023-04-24T14:41:38;5.38;;;4.97;;
16804;SDS011;8520;50.102;20.010;2023-04-24T14:44:08;5.05;;;4.65;;
16804;SDS011;8520;50.102;20.010;2023-04-24T14:46:37;5.47;;;5.07;;
16804;SDS011;8520;50.102;20.010;2023-04-24T14:49:05;5.30;;;5.00;;
16804;SDS011;8520;50.102;20.010;2023-04-24T14:51:36;4.70;;;4.50;;
16804;SDS011;8520;50.102;20.010;2023-04-24T14:54:05;5.60;;;5.30;;
16804;SDS011;8520;50.102;20.010;2023-04-24T14:56:33;4.78;;;4.47;;
16804;SDS011;8520;50.102;20.010;2023-04-24T14:59:02;4.47;;;4.18;;
16804;SDS011;8520;50.102;20.010;2023-04-24T15:01:30;4.18;;;3.97;;
16804;SDS011;8520;50.102;20.010;2023-04-24T15:03:58;4.72;;;4.43;;
16804;SDS011;8520;50.102;20.010;2023-04-24T15:06:27;4.38;;;4.00;;